Pindall, Arkansas
Current Conditions -  °F | °C
As of 7:53 AM on Thursday 27 Nov 2014 (Local Time) from KHRO Reporting Station
Overcast Overcast  
Wind Chill: 30°   Ceiling: 1500
Heat Index: 30°   Visibility: 7mi
Dew Point: 24°   Wind: 3mph
Humidity: 79%   Direction: 350°N
Pressure: 30.46"   Gusts: NA
Location:  36.07°N, 92.88°W
Report Text: KHRO 271353Z AUTO 35003KT 7SM OVC015 M01/M04 A3046 RMK AO2 SLP323 T10111044
Loading
Personal Weather Stations






























Interactive Weather Map New forecast layout! Learn more

10-Day Weather Forecast

Advertisements
Track Severe Weather on mobile